Houstonia, Missouri
Current Conditions -  °F | °C
As of 7:58 PM on Monday 24 Nov 2014 (Local Time) from KSZL Reporting Station
Clear Clear  
Wind Chill: 25°   Ceiling: Unl
Heat Index: 31°   Visibility: 10mi
Dew Point: 23°   Wind: 6mph
Humidity: 74%   Direction: 250°WSW
Pressure: 29.98"   Gusts: NA
Location:  38.9°N, 93.36°W
Report Text: KSZL 250158Z 25005KT 10SM CLR M01/M05 A2998 RMK AO2A SLP162 T10071049 $
Loading
Personal Weather Stations






























Interactive Weather Map New forecast layout! Learn more

10-Day Weather Forecast

Advertisements
Track Severe Weather on mobile